sensor_id;sensor_type;location;lat;lon;timestamp;pressure;altitude;pressure_sealevel;temperature;humidity
12775;BME280;6451;42.630;23.382;2023-04-29T00:01:52;94428.63;;;12.04;52.24
12775;BME280;6451;42.630;23.382;2023-04-29T00:04:23;94432.81;;;12.02;51.93
12775;BME280;6451;42.630;23.382;2023-04-29T00:06:50;94420.06;;;12.21;51.91
12775;BME280;6451;42.630;23.382;2023-04-29T00:09:17;94429.84;;;12.07;51.87
12775;BME280;6451;42.630;23.382;2023-04-29T00:11:43;94431.56;;;12.15;51.64
12775;BME280;6451;42.630;23.382;2023-04-29T00:14:11;94357.66;;;11.62;51.16
12775;BME280;6451;42.630;23.382;2023-04-29T00:16:39;94435.13;;;11.84;51.98
12775;BME280;6451;42.630;23.382;2023-04-29T00:19:06;94442.47;;;11.99;51.49
12775;BME280;6451;42.630;23.382;2023-04-29T00:21:33;94439.34;;;11.81;52.04
12775;BME280;6451;42.630;23.382;2023-04-29T00:24:00;94445.44;;;11.94;51.79
12775;BME280;6451;42.630;23.382;2023-04-29T00:26:27;94453.75;;;12.17;51.25
12775;BME280;6451;42.630;23.382;2023-04-29T00:28:54;94398.44;;;11.93;51.04
12775;BME280;6451;42.630;23.382;2023-04-29T00:31:21;94423.97;;;12.05;51.00
12775;BME280;6451;42.630;23.382;2023-04-29T00:33:50;94439.34;;;12.32;51.13
12775;BME280;6451;42.630;23.382;2023-04-29T00:36:18;94417.03;;;12.42;50.54
12775;BME280;6451;42.630;23.382;2023-04-29T00:38:44;94439.25;;;12.44;50.67
12775;BME280;6451;42.630;23.382;2023-04-29T00:41:12;94444.59;;;12.41;50.51
12775;BME280;6451;42.630;23.382;2023-04-29T00:43:39;94403.00;;;12.05;50.67
12775;BME280;6451;42.630;23.382;2023-04-29T00:46:06;94443.38;;;12.73;50.17
12775;BME280;6451;42.630;23.382;2023-04-29T00:48:34;94403.50;;;12.46;50.97
12775;BME280;6451;42.630;23.382;2023-04-29T00:51:04;94437.16;;;12.38;51.31
12775;BME280;6451;42.630;23.382;2023-04-29T00:53:38;94421.81;;;12.49;51.29
12775;BME280;6451;42.630;23.382;2023-04-29T00:56:05;94431.97;;;12.33;52.07
12775;BME280;6451;42.630;23.382;2023-04-29T00:58:33;94421.06;;;12.13;52.51
12775;BME280;6451;42.630;23.382;2023-04-29T01:01:01;94425.41;;;12.18;51.59
12775;BME280;6451;42.630;23.382;2023-04-29T01:03:29;94416.75;;;12.12;51.55
12775;BME280;6451;42.630;23.382;2023-04-29T01:06:06;94409.56;;;12.20;50.94
12775;BME280;6451;42.630;23.382;2023-04-29T01:08:43;94385.88;;;12.05;50.67
12775;BME280;6451;42.630;23.382;2023-04-29T01:11:18;94399.63;;;12.28;50.59
12775;BME280;6451;42.630;23.382;2023-04-29T01:13:50;94400.72;;;12.42;49.78
12775;BME280;6451;42.630;23.382;2023-04-29T01:16:22;94405.06;;;12.28;49.80
12775;BME280;6451;42.630;23.382;2023-04-29T01:18:54;94395.16;;;12.04;49.83
12775;BME280;6451;42.630;23.382;2023-04-29T01:21:24;94396.41;;;12.06;49.47
12775;BME280;6451;42.630;23.382;2023-04-29T01:23:53;94399.66;;;11.96;49.42
12775;BME280;6451;42.630;23.382;2023-04-29T01:26:21;94401.16;;;11.93;49.56
12775;BME280;6451;42.630;23.382;2023-04-29T01:28:53;94382.31;;;11.53;50.20
12775;BME280;6451;42.630;23.382;2023-04-29T01:31:26;94394.31;;;11.68;50.45
12775;BME280;6451;42.630;23.382;2023-04-29T01:34:00;94322.69;;;11.60;49.61
12775;BME280;6451;42.630;23.382;2023-04-29T01:36:38;94360.78;;;11.80;50.89
12775;BME280;6451;42.630;23.382;2023-04-29T01:39:17;94394.50;;;11.44;53.29
12775;BME280;6451;42.630;23.382;2023-04-29T01:41:51;94394.28;;;11.21;54.04
12775;BME280;6451;42.630;23.382;2023-04-29T01:44:23;94348.19;;;10.65;55.40
12775;BME280;6451;42.630;23.382;2023-04-29T01:46:52;94303.19;;;10.64;55.17
12775;BME280;6451;42.630;23.382;2023-04-29T01:49:19;94393.69;;;11.27;55.23
12775;BME280;6451;42.630;23.382;2023-04-29T01:51:46;94380.94;;;11.00;56.38
12775;BME280;6451;42.630;23.382;2023-04-29T01:54:15;94394.72;;;10.51;58.69
12775;BME280;6451;42.630;23.382;2023-04-29T01:56:42;94370.91;;;10.88;58.11
12775;BME280;6451;42.630;23.382;2023-04-29T01:59:09;94388.81;;;10.89;58.11
12775;BME280;6451;42.630;23.382;2023-04-29T02:01:36;94391.56;;;11.05;57.90
12775;BME280;6451;42.630;23.382;2023-04-29T02:04:03;94368.34;;;11.07;57.56
12775;BME280;6451;42.630;23.382;2023-04-29T02:06:32;94391.94;;;11.35;56.76
12775;BME280;6451;42.630;23.382;2023-04-29T02:08:59;94377.59;;;10.91;56.96
12775;BME280;6451;42.630;23.382;2023-04-29T02:11:28;94376.13;;;11.09;56.94
12775;BME280;6451;42.630;23.382;2023-04-29T02:13:55;94394.72;;;11.23;56.56
12775;BME280;6451;42.630;23.382;2023-04-29T02:16:22;94395.97;;;11.41;56.71
12775;BME280;6451;42.630;23.382;2023-04-29T02:18:54;94403.00;;;10.98;57.37
12775;BME280;6451;42.630;23.382;2023-04-29T02:21:21;94372.16;;;10.91;57.68
12775;BME280;6451;42.630;23.382;2023-04-29T02:23:48;94395.50;;;11.23;57.13
12775;BME280;6451;42.630;23.382;2023-04-29T02:26:16;94403.41;;;11.12;57.37
12775;BME280;6451;42.630;23.382;2023-04-29T02:28:45;94399.00;;;11.08;57.44
12775;BME280;6451;42.630;23.382;2023-04-29T02:31:12;94392.19;;;11.30;57.54
12775;BME280;6451;42.630;23.382;2023-04-29T02:33:39;94398.31;;;11.27;57.41
12775;BME280;6451;42.630;23.382;2023-04-29T02:36:06;94391.13;;;11.19;57.81
12775;BME280;6451;42.630;23.382;2023-04-29T02:38:33;94376.75;;;11.18;57.19
12775;BME280;6451;42.630;23.382;2023-04-29T02:41:03;94390.81;;;11.36;56.97
12775;BME280;6451;42.630;23.382;2023-04-29T02:43:30;94390.28;;;11.46;56.14
12775;BME280;6451;42.630;23.382;2023-04-29T02:45:58;94370.63;;;11.21;55.90
12775;BME280;6451;42.630;23.382;2023-04-29T02:48:26;94393.34;;;11.60;55.49
12775;BME280;6451;42.630;23.382;2023-04-29T02:50:53;94392.38;;;11.53;55.54
12775;BME280;6451;42.630;23.382;2023-04-29T02:53:20;94346.00;;;11.14;55.60
12775;BME280;6451;42.630;23.382;2023-04-29T02:55:47;94381.50;;;11.37;55.53
12775;BME280;6451;42.630;23.382;2023-04-29T02:58:14;94386.75;;;11.30;55.71
12775;BME280;6451;42.630;23.382;2023-04-29T03:00:42;94393.78;;;11.31;55.82
12775;BME280;6451;42.630;23.382;2023-04-29T03:03:10;94415.16;;;11.48;56.12
12775;BME280;6451;42.630;23.382;2023-04-29T03:05:37;94429.41;;;11.73;55.61
12775;BME280;6451;42.630;23.382;2023-04-29T03:08:05;94419.81;;;11.48;55.61
12775;BME280;6451;42.630;23.382;2023-04-29T03:10:34;94419.72;;;11.44;56.11
12775;BME280;6451;42.630;23.382;2023-04-29T03:13:02;94421.78;;;11.19;57.77
12775;BME280;6451;42.630;23.382;2023-04-29T03:15:29;94419.13;;;11.35;57.41
12775;BME280;6451;42.630;23.382;2023-04-29T03:17:56;94414.78;;;11.34;57.77
12775;BME280;6451;42.630;23.382;2023-04-29T03:20:27;94412.00;;;11.30;57.71
12775;BME280;6451;42.630;23.382;2023-04-29T03:22:54;94421.91;;;11.38;57.94
12775;BME280;6451;42.630;23.382;2023-04-29T03:25:21;94420.88;;;11.43;57.99
12775;BME280;6451;42.630;23.382;2023-04-29T03:27:48;94392.44;;;11.25;58.15
12775;BME280;6451;42.630;23.382;2023-04-29T03:30:17;94404.00;;;11.06;59.04
12775;BME280;6451;42.630;23.382;2023-04-29T03:32:44;94429.28;;;11.10;58.79
12775;BME280;6451;42.630;23.382;2023-04-29T03:35:11;94418.59;;;10.73;59.25
12775;BME280;6451;42.630;23.382;2023-04-29T03:37:39;94449.19;;;10.86;59.97
12775;BME280;6451;42.630;23.382;2023-04-29T03:40:09;94422.38;;;10.97;59.79
12775;BME280;6451;42.630;23.382;2023-04-29T03:42:36;94453.59;;;11.19;60.37
12775;BME280;6451;42.630;23.382;2023-04-29T03:45:04;94456.22;;;11.15;59.08
12775;BME280;6451;42.630;23.382;2023-04-29T03:47:31;94458.06;;;11.27;58.96
12775;BME280;6451;42.630;23.382;2023-04-29T03:49:58;94435.88;;;11.09;58.48
12775;BME280;6451;42.630;23.382;2023-04-29T03:52:27;94444.41;;;11.23;59.21
12775;BME280;6451;42.630;23.382;2023-04-29T03:54:56;94453.50;;;11.15;60.12
12775;BME280;6451;42.630;23.382;2023-04-29T03:57:23;94426.81;;;11.33;59.28
12775;BME280;6451;42.630;23.382;2023-04-29T03:59:50;94419.91;;;11.51;58.71
12775;BME280;6451;42.630;23.382;2023-04-29T04:02:17;94438.66;;;11.56;57.47
12775;BME280;6451;42.630;23.382;2023-04-29T04:04:44;94438.03;;;11.31;57.05
12775;BME280;6451;42.630;23.382;2023-04-29T04:07:11;94441.97;;;10.90;58.37
12775;BME280;6451;42.630;23.382;2023-04-29T04:09:37;94424.78;;;11.30;58.20
12775;BME280;6451;42.630;23.382;2023-04-29T04:12:06;94428.84;;;11.36;58.44
12775;BME280;6451;42.630;23.382;2023-04-29T04:14:33;94440.06;;;11.06;59.21
12775;BME280;6451;42.630;23.382;2023-04-29T04:17:00;94441.97;;;11.34;58.63
12775;BME280;6451;42.630;23.382;2023-04-29T04:19:27;94388.56;;;10.66;59.53
12775;BME280;6451;42.630;23.382;2023-04-29T04:21:55;94440.91;;;11.23;59.40
12775;BME280;6451;42.630;23.382;2023-04-29T04:24:22;94444.47;;;11.27;59.29
12775;BME280;6451;42.630;23.382;2023-04-29T04:26:49;94419.97;;;11.39;59.13
12775;BME280;6451;42.630;23.382;2023-04-29T04:29:18;94437.97;;;11.59;58.42
12775;BME280;6451;42.630;23.382;2023-04-29T04:31:45;94440.78;;;11.94;57.97
12775;BME280;6451;42.630;23.382;2023-04-29T04:34:12;94442.34;;;11.80;58.78
12775;BME280;6451;42.630;23.382;2023-04-29T04:36:39;94433.91;;;11.81;59.23
12775;BME280;6451;42.630;23.382;2023-04-29T04:39:06;94436.59;;;11.65;59.79
12775;BME280;6451;42.630;23.382;2023-04-29T04:41:33;94430.78;;;11.67;60.49
12775;BME280;6451;42.630;23.382;2023-04-29T04:44:00;94435.16;;;11.56;61.51
12775;BME280;6451;42.630;23.382;2023-04-29T04:46:29;94436.69;;;11.85;60.62
12775;BME280;6451;42.630;23.382;2023-04-29T04:48:57;94426.03;;;12.11;59.62
12775;BME280;6451;42.630;23.382;2023-04-29T04:51:24;94423.81;;;12.33;58.89
12775;BME280;6451;42.630;23.382;2023-04-29T04:53:53;94436.72;;;12.36;59.71
12775;BME280;6451;42.630;23.382;2023-04-29T04:56:20;94445.09;;;12.82;58.85
12775;BME280;6451;42.630;23.382;2023-04-29T04:58:47;94441.13;;;13.18;57.69
12775;BME280;6451;42.630;23.382;2023-04-29T05:01:14;94437.06;;;13.08;57.41
12775;BME280;6451;42.630;23.382;2023-04-29T05:03:42;94439.94;;;13.34;56.89
12775;BME280;6451;42.630;23.382;2023-04-29T05:06:09;94443.47;;;12.96;57.49
12775;BME280;6451;42.630;23.382;2023-04-29T05:08:36;94429.59;;;13.44;56.15
12775;BME280;6451;42.630;23.382;2023-04-29T05:11:03;94435.50;;;13.07;56.74
12775;BME280;6451;42.630;23.382;2023-04-29T05:13:36;94423.31;;;12.82;58.44
12775;BME280;6451;42.630;23.382;2023-04-29T05:16:04;94420.94;;;12.61;59.67
12775;BME280;6451;42.630;23.382;2023-04-29T05:18:31;94417.28;;;12.92;59.48
12775;BME280;6451;42.630;23.382;2023-04-29T05:20:59;94414.28;;;12.77;59.93
12775;BME280;6451;42.630;23.382;2023-04-29T05:23:26;94418.47;;;13.33;58.90
12775;BME280;6451;42.630;23.382;2023-04-29T05:25:53;94408.38;;;13.79;57.58
12775;BME280;6451;42.630;23.382;2023-04-29T05:28:20;94403.84;;;13.87;56.73
12775;BME280;6451;42.630;23.382;2023-04-29T05:30:49;94397.84;;;13.78;56.21
12775;BME280;6451;42.630;23.382;2023-04-29T05:33:17;94378.09;;;12.96;57.96
12775;BME280;6451;42.630;23.382;2023-04-29T05:35:45;94395.19;;;13.35;57.72
12775;BME280;6451;42.630;23.382;2023-04-29T05:38:13;94334.84;;;13.37;57.87
12775;BME280;6451;42.630;23.382;2023-04-29T05:40:40;94403.59;;;14.22;57.19
12775;BME280;6451;42.630;23.382;2023-04-29T05:43:07;94391.63;;;14.30;56.44
12775;BME280;6451;42.630;23.382;2023-04-29T05:45:34;94390.41;;;14.01;56.30
12775;BME280;6451;42.630;23.382;2023-04-29T05:48:01;94398.16;;;13.96;56.37
12775;BME280;6451;42.630;23.382;2023-04-29T05:50:28;94382.31;;;14.05;55.84
12775;BME280;6451;42.630;23.382;2023-04-29T05:52:55;94387.16;;;13.92;56.42
12775;BME280;6451;42.630;23.382;2023-04-29T05:55:26;94389.97;;;14.22;56.55
12775;BME280;6451;42.630;23.382;2023-04-29T05:57:53;94385.34;;;14.83;55.31
12775;BME280;6451;42.630;23.382;2023-04-29T06:00:21;94398.34;;;14.63;55.70
12775;BME280;6451;42.630;23.382;2023-04-29T06:02:48;94385.41;;;14.30;56.37
12775;BME280;6451;42.630;23.382;2023-04-29T06:05:17;94392.75;;;14.52;56.62
12775;BME280;6451;42.630;23.382;2023-04-29T06:07:44;94396.81;;;15.29;55.62
12775;BME280;6451;42.630;23.382;2023-04-29T06:10:11;94404.25;;;15.66;54.55
12775;BME280;6451;42.630;23.382;2023-04-29T06:12:39;94398.53;;;16.36;52.43
12775;BME280;6451;42.630;23.382;2023-04-29T06:15:07;94390.81;;;16.49;52.09
12775;BME280;6451;42.630;23.382;2023-04-29T06:17:34;94387.25;;;15.90;52.47
12775;BME280;6451;42.630;23.382;2023-04-29T06:20:02;94389.56;;;16.39;51.38
12775;BME280;6451;42.630;23.382;2023-04-29T06:22:30;94361.25;;;16.18;51.38
12775;BME280;6451;42.630;23.382;2023-04-29T06:24:57;94360.97;;;16.37;51.12
12775;BME280;6451;42.630;23.382;2023-04-29T06:27:24;94314.75;;;15.66;49.61
12775;BME280;6451;42.630;23.382;2023-04-29T06:29:54;94396.25;;;15.94;50.69
12775;BME280;6451;42.630;23.382;2023-04-29T06:32:21;94393.72;;;16.19;49.72
12775;BME280;6451;42.630;23.382;2023-04-29T06:34:49;94400.38;;;16.18;49.71
12775;BME280;6451;42.630;23.382;2023-04-29T06:37:16;94395.22;;;16.09;50.37
12775;BME280;6451;42.630;23.382;2023-04-29T06:39:43;94403.53;;;16.82;49.43
12775;BME280;6451;42.630;23.382;2023-04-29T06:42:10;94394.00;;;16.62;49.51
12775;BME280;6451;42.630;23.382;2023-04-29T06:44:38;94409.72;;;16.13;50.07
12775;BME280;6451;42.630;23.382;2023-04-29T06:47:06;94400.53;;;17.12;48.05
12775;BME280;6451;42.630;23.382;2023-04-29T06:49:33;94402.06;;;16.40;49.37
12775;BME280;6451;42.630;23.382;2023-04-29T06:52:00;94398.44;;;16.19;48.93
12775;BME280;6451;42.630;23.382;2023-04-29T06:54:29;94394.25;;;16.39;49.29
12775;BME280;6451;42.630;23.382;2023-04-29T06:56:57;94390.19;;;16.74;49.10
12775;BME280;6451;42.630;23.382;2023-04-29T06:59:25;94395.28;;;16.75;49.65
12775;BME280;6451;42.630;23.382;2023-04-29T07:01:52;94376.97;;;17.01;48.58
12775;BME280;6451;42.630;23.382;2023-04-29T07:04:20;94393.38;;;16.90;49.65
12775;BME280;6451;42.630;23.382;2023-04-29T07:06:47;94380.78;;;16.78;49.06
12775;BME280;6451;42.630;23.382;2023-04-29T07:09:15;94384.00;;;16.87;49.15
12775;BME280;6451;42.630;23.382;2023-04-29T07:11:42;94395.44;;;17.14;48.82
12775;BME280;6451;42.630;23.382;2023-04-29T07:14:09;94364.84;;;16.98;49.11
12775;BME280;6451;42.630;23.382;2023-04-29T07:16:36;94384.94;;;16.51;48.98
12775;BME280;6451;42.630;23.382;2023-04-29T07:19:02;94385.94;;;16.94;48.25
12775;BME280;6451;42.630;23.382;2023-04-29T07:21:32;94372.22;;;16.83;49.11
12775;BME280;6451;42.630;23.382;2023-04-29T07:23:59;94382.81;;;16.92;48.86
12775;BME280;6451;42.630;23.382;2023-04-29T07:26:27;94379.75;;;17.08;49.11
12775;BME280;6451;42.630;23.382;2023-04-29T07:28:54;94374.16;;;16.83;48.57
12775;BME280;6451;42.630;23.382;2023-04-29T07:31:21;94390.03;;;17.36;47.69
12775;BME280;6451;42.630;23.382;2023-04-29T07:33:48;94380.28;;;17.67;46.92
12775;BME280;6451;42.630;23.382;2023-04-29T07:36:15;94363.88;;;17.81;46.72
12775;BME280;6451;42.630;23.382;2023-04-29T07:38:43;94374.81;;;17.77;47.18
12775;BME280;6451;42.630;23.382;2023-04-29T07:41:10;94383.72;;;17.32;47.83
12775;BME280;6451;42.630;23.382;2023-04-29T07:43:37;94380.22;;;17.28;47.40
12775;BME280;6451;42.630;23.382;2023-04-29T07:46:04;94381.41;;;17.44;47.35
12775;BME280;6451;42.630;23.382;2023-04-29T07:48:35;94382.59;;;17.54;46.17
12775;BME280;6451;42.630;23.382;2023-04-29T07:51:11;94381.91;;;17.71;45.92
12775;BME280;6451;42.630;23.382;2023-04-29T07:53:43;94385.44;;;17.79;46.04
12775;BME280;6451;42.630;23.382;2023-04-29T07:56:10;94376.34;;;18.68;44.34
12775;BME280;6451;42.630;23.382;2023-04-29T07:58:37;94353.13;;;18.86;43.16
12775;BME280;6451;42.630;23.382;2023-04-29T08:01:05;94359.00;;;18.88;43.07
12775;BME280;6451;42.630;23.382;2023-04-29T08:03:33;94373.22;;;18.51;43.23
12775;BME280;6451;42.630;23.382;2023-04-29T08:06:00;94351.84;;;19.09;42.29
12775;BME280;6451;42.630;23.382;2023-04-29T08:08:28;94353.66;;;19.37;42.18
12775;BME280;6451;42.630;23.382;2023-04-29T08:10:57;94336.38;;;19.36;41.67
12775;BME280;6451;42.630;23.382;2023-04-29T08:13:24;94359.00;;;18.85;41.67
12775;BME280;6451;42.630;23.382;2023-04-29T08:15:52;94369.59;;;18.90;41.48
12775;BME280;6451;42.630;23.382;2023-04-29T08:18:19;94311.00;;;19.04;40.94
12775;BME280;6451;42.630;23.382;2023-04-29T08:20:49;94353.78;;;19.15;41.26
12775;BME280;6451;42.630;23.382;2023-04-29T08:23:16;94355.25;;;19.34;41.60
12775;BME280;6451;42.630;23.382;2023-04-29T08:25:43;94353.16;;;19.60;40.30
12775;BME280;6451;42.630;23.382;2023-04-29T08:28:11;94338.25;;;19.57;40.33
12775;BME280;6451;42.630;23.382;2023-04-29T08:30:39;94349.50;;;19.11;41.73
12775;BME280;6451;42.630;23.382;2023-04-29T08:33:06;94352.13;;;19.91;41.51
12775;BME280;6451;42.630;23.382;2023-04-29T08:35:33;94351.28;;;20.02;40.95
12775;BME280;6451;42.630;23.382;2023-04-29T08:38:03;94334.81;;;19.94;39.08
12775;BME280;6451;42.630;23.382;2023-04-29T08:40:33;94351.88;;;20.23;37.42
12775;BME280;6451;42.630;23.382;2023-04-29T08:43:02;94354.97;;;20.29;37.07
12775;BME280;6451;42.630;23.382;2023-04-29T08:45:31;94350.72;;;20.21;35.87
12775;BME280;6451;42.630;23.382;2023-04-29T08:48:01;94332.56;;;20.27;35.15
12775;BME280;6451;42.630;23.382;2023-04-29T08:50:29;94346.41;;;20.20;36.37
12775;BME280;6451;42.630;23.382;2023-04-29T08:52:57;94333.13;;;20.08;36.45
12775;BME280;6451;42.630;23.382;2023-04-29T08:55:24;94323.44;;;20.34;36.44
12775;BME280;6451;42.630;23.382;2023-04-29T08:57:53;94307.88;;;19.71;37.17
12775;BME280;6451;42.630;23.382;2023-04-29T09:00:22;94320.72;;;20.30;36.91
12775;BME280;6451;42.630;23.382;2023-04-29T09:02:53;94322.91;;;20.05;36.96
12775;BME280;6451;42.630;23.382;2023-04-29T09:05:22;94321.53;;;20.27;36.83
12775;BME280;6451;42.630;23.382;2023-04-29T09:07:51;94324.38;;;20.16;37.56
12775;BME280;6451;42.630;23.382;2023-04-29T09:10:21;94316.84;;;20.65;36.11
12775;BME280;6451;42.630;23.382;2023-04-29T09:12:48;94313.59;;;21.62;35.32
12775;BME280;6451;42.630;23.382;2023-04-29T09:15:15;94310.44;;;21.63;34.46
12775;BME280;6451;42.630;23.382;2023-04-29T09:17:43;94298.28;;;21.30;34.61
12775;BME280;6451;42.630;23.382;2023-04-29T09:20:31;94293.09;;;21.05;35.35
12775;BME280;6451;42.630;23.382;2023-04-29T09:22:59;94307.63;;;21.09;33.73
12775;BME280;6451;42.630;23.382;2023-04-29T09:25:28;94305.09;;;21.22;34.44
12775;BME280;6451;42.630;23.382;2023-04-29T09:27:56;94284.88;;;20.34;34.47
12775;BME280;6451;42.630;23.382;2023-04-29T09:30:24;94303.50;;;21.25;33.38
12775;BME280;6451;42.630;23.382;2023-04-29T09:33:03;94291.72;;;21.75;33.82
12775;BME280;6451;42.630;23.382;2023-04-29T09:35:32;94272.84;;;21.70;33.07
12775;BME280;6451;42.630;23.382;2023-04-29T09:38:10;94296.53;;;21.71;33.42
12775;BME280;6451;42.630;23.382;2023-04-29T09:40:41;94281.72;;;21.30;33.18
12775;BME280;6451;42.630;23.382;2023-04-29T09:43:13;94288.44;;;22.07;32.65
12775;BME280;6451;42.630;23.382;2023-04-29T09:45:41;94282.69;;;22.64;31.84
12775;BME280;6451;42.630;23.382;2023-04-29T09:48:10;94282.09;;;22.73;31.20
12775;BME280;6451;42.630;23.382;2023-04-29T09:50:40;94285.78;;;22.23;31.95
12775;BME280;6451;42.630;23.382;2023-04-29T09:53:09;94257.19;;;22.53;31.61
12775;BME280;6451;42.630;23.382;2023-04-29T09:55:57;94272.31;;;22.68;31.82
12775;BME280;6451;42.630;23.382;2023-04-29T09:58:27;94281.56;;;22.18;31.70
12775;BME280;6451;42.630;23.382;2023-04-29T10:00:57;94275.50;;;22.00;31.33
12775;BME280;6451;42.630;23.382;2023-04-29T10:03:27;94267.22;;;21.77;30.77
12775;BME280;6451;42.630;23.382;2023-04-29T10:06:00;94272.91;;;22.16;30.71
12775;BME280;6451;42.630;23.382;2023-04-29T10:08:28;94267.44;;;22.13;30.95
12775;BME280;6451;42.630;23.382;2023-04-29T10:10:59;94251.81;;;22.46;30.46
12775;BME280;6451;42.630;23.382;2023-04-29T10:13:27;94252.66;;;22.43;30.19
12775;BME280;6451;42.630;23.382;2023-04-29T10:15:58;94255.00;;;22.84;30.26
12775;BME280;6451;42.630;23.382;2023-04-29T10:18:33;94246.31;;;21.76;31.89
12775;BME280;6451;42.630;23.382;2023-04-29T10:21:06;94243.31;;;22.57;32.11
12775;BME280;6451;42.630;23.382;2023-04-29T10:23:33;94248.13;;;22.72;31.88
12775;BME280;6451;42.630;23.382;2023-04-29T10:26:03;94245.97;;;22.20;32.06
12775;BME280;6451;42.630;23.382;2023-04-29T10:28:32;94247.44;;;22.48;32.03
12775;BME280;6451;42.630;23.382;2023-04-29T10:31:00;94240.75;;;22.26;32.14
12775;BME280;6451;42.630;23.382;2023-04-29T10:33:30;94234.31;;;22.33;31.16
12775;BME280;6451;42.630;23.382;2023-04-29T10:35:58;94220.03;;;22.74;31.06
12775;BME280;6451;42.630;23.382;2023-04-29T10:38:32;94230.72;;;23.12;30.83
12775;BME280;6451;42.630;23.382;2023-04-29T10:41:03;94227.06;;;24.00;28.80
12775;BME280;6451;42.630;23.382;2023-04-29T10:43:34;94229.16;;;23.11;27.65
12775;BME280;6451;42.630;23.382;2023-04-29T10:46:16;94229.09;;;23.30;27.26
12775;BME280;6451;42.630;23.382;2023-04-29T10:48:44;94232.69;;;22.95;27.96
12775;BME280;6451;42.630;23.382;2023-04-29T10:51:11;94242.47;;;22.40;28.71
12775;BME280;6451;42.630;23.382;2023-04-29T10:54:01;94231.69;;;22.85;28.20
12775;BME280;6451;42.630;23.382;2023-04-29T10:56:39;94221.81;;;23.73;28.13
12775;BME280;6451;42.630;23.382;2023-04-29T10:59:14;94228.72;;;23.12;28.81
12775;BME280;6451;42.630;23.382;2023-04-29T11:01:44;94232.34;;;21.86;30.10
12775;BME280;6451;42.630;23.382;2023-04-29T11:04:11;94206.09;;;22.41;29.51
12775;BME280;6451;42.630;23.382;2023-04-29T11:06:50;94227.69;;;22.27;29.59
12775;BME280;6451;42.630;23.382;2023-04-29T11:09:20;94218.22;;;23.56;28.80
12775;BME280;6451;42.630;23.382;2023-04-29T11:11:57;94219.25;;;23.29;28.73
12775;BME280;6451;42.630;23.382;2023-04-29T11:14:33;94237.09;;;22.09;28.77
12775;BME280;6451;42.630;23.382;2023-04-29T11:17:03;94215.78;;;22.06;28.73
12775;BME280;6451;42.630;23.382;2023-04-29T11:19:32;94225.88;;;22.40;28.57
12775;BME280;6451;42.630;23.382;2023-04-29T11:22:30;94226.28;;;21.95;28.59
12775;BME280;6451;42.630;23.382;2023-04-29T11:25:01;94216.34;;;22.81;28.49
12775;BME280;6451;42.630;23.382;2023-04-29T11:27:30;94223.78;;;23.03;26.96
12775;BME280;6451;42.630;23.382;2023-04-29T11:29:58;94218.16;;;23.07;27.92
12775;BME280;6451;42.630;23.382;2023-04-29T11:32:26;94220.53;;;22.69;29.02
12775;BME280;6451;42.630;23.382;2023-04-29T11:34:54;94224.31;;;22.59;29.08
12775;BME280;6451;42.630;23.382;2023-04-29T11:37:22;94211.94;;;22.83;29.05
12775;BME280;6451;42.630;23.382;2023-04-29T11:39:50;94205.00;;;22.15;29.29
12775;BME280;6451;42.630;23.382;2023-04-29T11:42:21;94202.31;;;21.88;29.73
12775;BME280;6451;42.630;23.382;2023-04-29T11:44:51;94212.25;;;22.06;30.39
12775;BME280;6451;42.630;23.382;2023-04-29T11:47:19;94214.53;;;22.34;30.30
12775;BME280;6451;42.630;23.382;2023-04-29T11:49:47;94213.53;;;22.25;30.78
12775;BME280;6451;42.630;23.382;2023-04-29T11:52:14;94213.88;;;22.03;30.34
12775;BME280;6451;42.630;23.382;2023-04-29T11:54:41;94219.53;;;21.96;30.70
12775;BME280;6451;42.630;23.382;2023-04-29T11:57:09;94214.50;;;21.68;30.92
12775;BME280;6451;42.630;23.382;2023-04-29T11:59:37;94214.75;;;21.77;30.64
12775;BME280;6451;42.630;23.382;2023-04-29T12:02:10;94207.09;;;21.84;30.40
12775;BME280;6451;42.630;23.382;2023-04-29T12:04:44;94190.78;;;22.17;29.82
12775;BME280;6451;42.630;23.382;2023-04-29T12:07:13;94201.72;;;22.01;29.91
12775;BME280;6451;42.630;23.382;2023-04-29T12:09:41;94206.00;;;22.25;30.66
12775;BME280;6451;42.630;23.382;2023-04-29T12:12:09;94191.97;;;21.46;31.73
12775;BME280;6451;42.630;23.382;2023-04-29T12:14:39;94205.50;;;21.40;32.44
12775;BME280;6451;42.630;23.382;2023-04-29T12:17:07;94205.44;;;21.67;32.58
12775;BME280;6451;42.630;23.382;2023-04-29T12:19:35;94207.69;;;21.25;32.89
12775;BME280;6451;42.630;23.382;2023-04-29T12:22:04;94214.66;;;20.76;33.23
12775;BME280;6451;42.630;23.382;2023-04-29T12:24:33;94201.53;;;20.87;33.30
12775;BME280;6451;42.630;23.382;2023-04-29T12:27:01;94203.13;;;21.38;33.14
12775;BME280;6451;42.630;23.382;2023-04-29T12:29:28;94198.41;;;21.39;33.96
12775;BME280;6451;42.630;23.382;2023-04-29T12:31:58;94205.75;;;21.73;33.69
12775;BME280;6451;42.630;23.382;2023-04-29T12:34:25;94187.03;;;22.04;34.45
12775;BME280;6451;42.630;23.382;2023-04-29T12:36:54;94193.31;;;22.28;35.13
12775;BME280;6451;42.630;23.382;2023-04-29T12:39:22;94189.44;;;23.01;34.16
12775;BME280;6451;42.630;23.382;2023-04-29T12:41:53;94184.41;;;22.96;34.07
12775;BME280;6451;42.630;23.382;2023-04-29T12:44:22;94162.13;;;23.19;33.78
12775;BME280;6451;42.630;23.382;2023-04-29T12:46:49;94180.25;;;22.68;34.31
12775;BME280;6451;42.630;23.382;2023-04-29T12:49:18;94181.34;;;23.10;34.14
12775;BME280;6451;42.630;23.382;2023-04-29T12:51:46;94175.19;;;23.35;34.06
12775;BME280;6451;42.630;23.382;2023-04-29T12:54:12;94171.56;;;23.87;33.91
12775;BME280;6451;42.630;23.382;2023-04-29T12:56:39;94143.34;;;23.43;34.12
12775;BME280;6451;42.630;23.382;2023-04-29T12:59:08;94178.16;;;23.93;33.81
12775;BME280;6451;42.630;23.382;2023-04-29T13:01:36;94169.19;;;22.88;34.59
12775;BME280;6451;42.630;23.382;2023-04-29T13:04:03;94172.09;;;23.49;34.20
12775;BME280;6451;42.630;23.382;2023-04-29T13:06:34;94169.22;;;23.53;34.26
12775;BME280;6451;42.630;23.382;2023-04-29T13:09:04;94179.94;;;24.29;33.46